sensor_id;sensor_type;location;lat;lon;timestamp;pressure;altitude;pressure_sealevel;temperature;humidity
53868;BME280;41577;47.470;19.080;2023-02-28T00:00:05;101292.84;;;0.62;58.28
53868;BME280;41577;47.470;19.080;2023-02-28T00:00:18;101290.19;;;0.62;58.43
53868;BME280;41577;47.470;19.080;2023-02-28T00:00:32;101288.41;;;0.63;58.47
53868;BME280;41577;47.470;19.080;2023-02-28T00:00:45;101290.94;;;0.65;58.51
53868;BME280;41577;47.470;19.080;2023-02-28T00:00:58;101291.78;;;0.65;58.47
53868;BME280;41577;47.470;19.080;2023-02-28T00:01:11;101287.38;;;0.66;58.53
53868;BME280;41577;47.470;19.080;2023-02-28T00:01:25;101287.38;;;0.66;58.45
53868;BME280;41577;47.470;19.080;2023-02-28T00:01:38;101289.06;;;0.67;58.53
53868;BME280;41577;47.470;19.080;2023-02-28T00:01:51;101291.56;;;0.68;58.26
53868;BME280;41577;47.470;19.080;2023-02-28T00:02:03;101295.06;;;0.69;58.38
53868;BME280;41577;47.470;19.080;2023-02-28T00:02:15;101291.56;;;0.68;58.16
53868;BME280;41577;47.470;19.080;2023-02-28T00:02:28;101288.19;;;0.66;57.88
53868;BME280;41577;47.470;19.080;2023-02-28T00:02:42;101285.47;;;0.68;57.87
53868;BME280;41577;47.470;19.080;2023-02-28T00:02:56;101291.47;;;0.70;57.92
53868;BME280;41577;47.470;19.080;2023-02-28T00:03:09;101293.38;;;0.68;57.76
53868;BME280;41577;47.470;19.080;2023-02-28T00:03:23;101289.91;;;0.67;57.85
53868;BME280;41577;47.470;19.080;2023-02-28T00:03:35;101289.06;;;0.67;57.95
53868;BME280;41577;47.470;19.080;2023-02-28T00:03:49;101295.16;;;0.67;57.87
53868;BME280;41577;47.470;19.080;2023-02-28T00:04:06;101292.63;;;0.66;57.95
53868;BME280;41577;47.470;19.080;2023-02-28T00:04:18;101294.31;;;0.67;57.89
53868;BME280;41577;47.470;19.080;2023-02-28T00:04:31;101290.81;;;0.66;58.01
53868;BME280;41577;47.470;19.080;2023-02-28T00:04:44;101298.63;;;0.68;58.25
53868;BME280;41577;47.470;19.080;2023-02-28T00:04:57;101296.09;;;0.66;58.17
53868;BME280;41577;47.470;19.080;2023-02-28T00:05:11;101290.00;;;0.66;57.93
53868;BME280;41577;47.470;19.080;2023-02-28T00:05:26;101290.13;;;0.64;58.03
53868;BME280;41577;47.470;19.080;2023-02-28T00:05:39;101297.03;;;0.65;58.12
53868;BME280;41577;47.470;19.080;2023-02-28T00:05:51;101294.41;;;0.65;58.18
53868;BME280;41577;47.470;19.080;2023-02-28T00:06:05;101296.22;;;0.65;58.16
53868;BME280;41577;47.470;19.080;2023-02-28T00:06:18;101296.22;;;0.65;57.96
53868;BME280;41577;47.470;19.080;2023-02-28T00:06:30;101287.66;;;0.61;57.95
53868;BME280;41577;47.470;19.080;2023-02-28T00:06:43;101288.41;;;0.63;57.90
53868;BME280;41577;47.470;19.080;2023-02-28T00:06:56;101294.50;;;0.63;57.86
53868;BME280;41577;47.470;19.080;2023-02-28T00:07:08;101289.06;;;0.67;57.86
53868;BME280;41577;47.470;19.080;2023-02-28T00:07:21;101290.94;;;0.65;57.82
53868;BME280;41577;47.470;19.080;2023-02-28T00:07:35;101287.38;;;0.66;57.95
53868;BME280;41577;47.470;19.080;2023-02-28T00:07:48;101295.25;;;0.66;57.87
53868;BME280;41577;47.470;19.080;2023-02-28T00:08:00;101290.13;;;0.64;57.98
53868;BME280;41577;47.470;19.080;2023-02-28T00:08:13;101290.13;;;0.64;57.78
53868;BME280;41577;47.470;19.080;2023-02-28T00:08:26;101280.63;;;0.61;58.19
53868;BME280;41577;47.470;19.080;2023-02-28T00:08:39;101286.53;;;0.65;58.25
53868;BME280;41577;47.470;19.080;2023-02-28T00:08:51;101288.31;;;0.65;58.31
53868;BME280;41577;47.470;19.080;2023-02-28T00:09:04;101290.94;;;0.65;57.92
53868;BME280;41577;47.470;19.080;2023-02-28T00:09:16;101293.88;;;0.60;58.04
53868;BME280;41577;47.470;19.080;2023-02-28T00:09:30;101297.25;;;0.62;58.13
53868;BME280;41577;47.470;19.080;2023-02-28T00:09:43;101297.25;;;0.62;58.04
53868;BME280;41577;47.470;19.080;2023-02-28T00:09:55;101292.09;;;0.60;58.06
53868;BME280;41577;47.470;19.080;2023-02-28T00:10:09;101296.38;;;0.61;57.84
53868;BME280;41577;47.470;19.080;2023-02-28T00:10:25;101298.00;;;0.64;57.93
53868;BME280;41577;47.470;19.080;2023-02-28T00:10:39;101292.63;;;0.66;58.10
53868;BME280;41577;47.470;19.080;2023-02-28T00:10:53;101298.00;;;0.64;57.91
53868;BME280;41577;47.470;19.080;2023-02-28T00:11:10;101300.50;;;0.66;58.02
53868;BME280;41577;47.470;19.080;2023-02-28T00:11:23;101305.75;;;0.66;58.02
53868;BME280;41577;47.470;19.080;2023-02-28T00:11:36;101299.75;;;0.63;58.03
53868;BME280;41577;47.470;19.080;2023-02-28T00:11:48;101299.00;;;0.61;58.01
53868;BME280;41577;47.470;19.080;2023-02-28T00:12:00;101294.91;;;0.57;58.00
53868;BME280;41577;47.470;19.080;2023-02-28T00:12:14;101298.28;;;0.59;57.97
53868;BME280;41577;47.470;19.080;2023-02-28T00:12:28;101298.38;;;0.58;58.15
53868;BME280;41577;47.470;19.080;2023-02-28T00:12:42;101296.69;;;0.57;58.06
53868;BME280;41577;47.470;19.080;2023-02-28T00:12:59;101303.72;;;0.56;58.00
53868;BME280;41577;47.470;19.080;2023-02-28T00:13:13;101295.75;;;0.58;58.32
53868;BME280;41577;47.470;19.080;2023-02-28T00:13:26;101309.72;;;0.58;58.38
53868;BME280;41577;47.470;19.080;2023-02-28T00:13:40;101303.56;;;0.59;58.38
53868;BME280;41577;47.470;19.080;2023-02-28T00:13:55;101299.31;;;0.57;58.18
53868;BME280;41577;47.470;19.080;2023-02-28T00:14:08;101309.09;;;0.55;58.31
53868;BME280;41577;47.470;19.080;2023-02-28T00:14:20;101304.69;;;0.55;58.32
53868;BME280;41577;47.470;19.080;2023-02-28T00:14:33;101297.63;;;0.56;58.09
53868;BME280;41577;47.470;19.080;2023-02-28T00:14:45;101298.69;;;0.53;58.20
53868;BME280;41577;47.470;19.080;2023-02-28T00:14:58;101298.91;;;0.50;58.44
53868;BME280;41577;47.470;19.080;2023-02-28T00:15:10;101302.91;;;0.56;58.60
53868;BME280;41577;47.470;19.080;2023-02-28T00:15:26;101298.47;;;0.56;58.72
53868;BME280;41577;47.470;19.080;2023-02-28T00:15:39;101300.19;;;0.57;58.66
53868;BME280;41577;47.470;19.080;2023-02-28T00:15:59;101308.81;;;0.59;58.80
53868;BME280;41577;47.470;19.080;2023-02-28T00:16:12;101304.47;;;0.58;58.73
53868;BME280;41577;47.470;19.080;2023-02-28T00:16:25;101298.28;;;0.59;58.61
53868;BME280;41577;47.470;19.080;2023-02-28T00:16:37;101308.59;;;0.62;58.49
53868;BME280;41577;47.470;19.080;2023-02-28T00:16:50;101297.44;;;0.59;58.42
53868;BME280;41577;47.470;19.080;2023-02-28T00:17:04;101306.19;;;0.59;58.41
53868;BME280;41577;47.470;19.080;2023-02-28T00:17:17;101300.06;;;0.59;58.35
53868;BME280;41577;47.470;19.080;2023-02-28T00:17:31;101306.19;;;0.59;58.58
53868;BME280;41577;47.470;19.080;2023-02-28T00:17:44;101303.56;;;0.59;58.55
53868;BME280;41577;47.470;19.080;2023-02-28T00:17:57;101306.19;;;0.59;58.67
53868;BME280;41577;47.470;19.080;2023-02-28T00:18:09;101303.66;;;0.58;58.71
53868;BME280;41577;47.470;19.080;2023-02-28T00:18:22;101299.13;;;0.60;58.80
53868;BME280;41577;47.470;19.080;2023-02-28T00:18:35;101300.72;;;0.62;58.75
53868;BME280;41577;47.470;19.080;2023-02-28T00:18:48;101302.50;;;0.62;58.81
53868;BME280;41577;47.470;19.080;2023-02-28T00:19:01;101307.66;;;0.63;58.83
53868;BME280;41577;47.470;19.080;2023-02-28T00:19:13;101301.56;;;0.63;58.92
53868;BME280;41577;47.470;19.080;2023-02-28T00:19:26;101307.66;;;0.63;58.93
53868;BME280;41577;47.470;19.080;2023-02-28T00:19:38;101301.56;;;0.63;58.92
53868;BME280;41577;47.470;19.080;2023-02-28T00:19:51;101313.56;;;0.67;58.71
53868;BME280;41577;47.470;19.080;2023-02-28T00:20:06;101309.22;;;0.66;58.55
53868;BME280;41577;47.470;19.080;2023-02-28T00:20:20;101309.22;;;0.66;58.61
53868;BME280;41577;47.470;19.080;2023-02-28T00:20:32;101313.66;;;0.66;58.45
53868;BME280;41577;47.470;19.080;2023-02-28T00:20:46;101309.34;;;0.65;58.50
53868;BME280;41577;47.470;19.080;2023-02-28T00:20:59;101305.03;;;0.63;58.66
53868;BME280;41577;47.470;19.080;2023-02-28T00:21:11;101311.13;;;0.64;58.41
53868;BME280;41577;47.470;19.080;2023-02-28T00:21:23;101311.13;;;0.64;58.40
53868;BME280;41577;47.470;19.080;2023-02-28T00:21:35;101307.66;;;0.63;58.57
53868;BME280;41577;47.470;19.080;2023-02-28T00:21:47;101301.66;;;0.61;58.56
53868;BME280;41577;47.470;19.080;2023-02-28T00:21:59;101315.53;;;0.63;58.74
53868;BME280;41577;47.470;19.080;2023-02-28T00:22:11;101305.03;;;0.63;58.67
53868;BME280;41577;47.470;19.080;2023-02-28T00:22:23;101312.06;;;0.63;58.60
53868;BME280;41577;47.470;19.080;2023-02-28T00:22:41;101307.78;;;0.62;58.35
53868;BME280;41577;47.470;19.080;2023-02-28T00:22:54;101303.34;;;0.62;58.48
53868;BME280;41577;47.470;19.080;2023-02-28T00:23:08;101307.66;;;0.63;58.56
53868;BME280;41577;47.470;19.080;2023-02-28T00:23:20;101312.81;;;0.65;58.39
53868;BME280;41577;47.470;19.080;2023-02-28T00:23:36;101310.19;;;0.65;58.54
53868;BME280;41577;47.470;19.080;2023-02-28T00:23:51;101307.66;;;0.63;58.72
53868;BME280;41577;47.470;19.080;2023-02-28T00:24:04;101316.28;;;0.66;58.57
53868;BME280;41577;47.470;19.080;2023-02-28T00:24:17;101308.41;;;0.66;58.66
53868;BME280;41577;47.470;19.080;2023-02-28T00:24:29;101308.31;;;0.67;58.69
53868;BME280;41577;47.470;19.080;2023-02-28T00:24:42;101304.84;;;0.67;58.60
53868;BME280;41577;47.470;19.080;2023-02-28T00:24:54;101304.19;;;0.63;58.22
53868;BME280;41577;47.470;19.080;2023-02-28T00:25:10;101307.66;;;0.63;58.30
53868;BME280;41577;47.470;19.080;2023-02-28T00:25:25;101316.41;;;0.64;58.34
53868;BME280;41577;47.470;19.080;2023-02-28T00:25:37;101308.50;;;0.64;58.51
53868;BME280;41577;47.470;19.080;2023-02-28T00:25:50;101312.81;;;0.65;58.55
53868;BME280;41577;47.470;19.080;2023-02-28T00:26:07;101309.13;;;0.68;58.69
53868;BME280;41577;47.470;19.080;2023-02-28T00:26:22;101311.69;;;0.69;58.68
53868;BME280;41577;47.470;19.080;2023-02-28T00:26:34;101308.22;;;0.69;58.77
53868;BME280;41577;47.470;19.080;2023-02-28T00:26:47;101313.47;;;0.69;58.66
53868;BME280;41577;47.470;19.080;2023-02-28T00:26:59;101304.63;;;0.70;58.67
53868;BME280;41577;47.470;19.080;2023-02-28T00:27:12;101313.34;;;0.70;58.56
53868;BME280;41577;47.470;19.080;2023-02-28T00:27:24;101315.06;;;0.71;58.46
53868;BME280;41577;47.470;19.080;2023-02-28T00:27:38;101309.81;;;0.71;58.73
53868;BME280;41577;47.470;19.080;2023-02-28T00:27:51;101314.94;;;0.73;58.49
53868;BME280;41577;47.470;19.080;2023-02-28T00:28:04;101310.63;;;0.72;58.49
53868;BME280;41577;47.470;19.080;2023-02-28T00:28:17;101309.69;;;0.73;58.46
53868;BME280;41577;47.470;19.080;2023-02-28T00:28:30;101316.63;;;0.74;58.29
53868;BME280;41577;47.470;19.080;2023-02-28T00:28:44;101313.25;;;0.72;58.27
53868;BME280;41577;47.470;19.080;2023-02-28T00:28:56;101315.88;;;0.72;58.27
53868;BME280;41577;47.470;19.080;2023-02-28T00:29:07;101309.97;;;0.68;58.46
53868;BME280;41577;47.470;19.080;2023-02-28T00:29:21;101313.25;;;0.72;58.38
53868;BME280;41577;47.470;19.080;2023-02-28T00:29:33;101306.22;;;0.72;58.36
53868;BME280;41577;47.470;19.080;2023-02-28T00:29:47;101311.47;;;0.72;58.59
53868;BME280;41577;47.470;19.080;2023-02-28T00:29:59;101308.94;;;0.71;58.64
53868;BME280;41577;47.470;19.080;2023-02-28T00:30:13;101305.38;;;0.72;58.74
53868;BME280;41577;47.470;19.080;2023-02-28T00:30:36;101311.56;;;0.71;58.92
53868;BME280;41577;47.470;19.080;2023-02-28T00:30:49;101303.59;;;0.72;58.91
53868;BME280;41577;47.470;19.080;2023-02-28T00:31:03;101318.53;;;0.72;58.79
53868;BME280;41577;47.470;19.080;2023-02-28T00:31:16;101311.47;;;0.72;58.90
53868;BME280;41577;47.470;19.080;2023-02-28T00:31:33;101309.81;;;0.71;58.82
53868;BME280;41577;47.470;19.080;2023-02-28T00:31:46;101313.25;;;0.72;58.91
53868;BME280;41577;47.470;19.080;2023-02-28T00:31:58;101312.44;;;0.71;58.82
53868;BME280;41577;47.470;19.080;2023-02-28T00:32:11;101312.31;;;0.73;58.85
53868;BME280;41577;47.470;19.080;2023-02-28T00:32:24;101311.38;;;0.74;58.89
53868;BME280;41577;47.470;19.080;2023-02-28T00:32:37;101312.22;;;0.74;58.89
53868;BME280;41577;47.470;19.080;2023-02-28T00:32:53;101317.38;;;0.76;58.75
53868;BME280;41577;47.470;19.080;2023-02-28T00:33:06;101310.44;;;0.75;58.81
53868;BME280;41577;47.470;19.080;2023-02-28T00:33:18;101311.28;;;0.75;58.75
53868;BME280;41577;47.470;19.080;2023-02-28T00:33:32;101312.97;;;0.76;58.69
53868;BME280;41577;47.470;19.080;2023-02-28T00:33:45;101306.88;;;0.76;58.81
53868;BME280;41577;47.470;19.080;2023-02-28T00:33:59;101319.91;;;0.77;58.62
53868;BME280;41577;47.470;19.080;2023-02-28T00:34:12;101314.75;;;0.76;58.46
53868;BME280;41577;47.470;19.080;2023-02-28T00:34:25;101312.13;;;0.76;58.52
53868;BME280;41577;47.470;19.080;2023-02-28T00:34:37;101315.69;;;0.75;58.47
53868;BME280;41577;47.470;19.080;2023-02-28T00:34:50;101319.28;;;0.74;58.62
53868;BME280;41577;47.470;19.080;2023-02-28T00:35:03;101318.44;;;0.73;58.74
53868;BME280;41577;47.470;19.080;2023-02-28T00:35:16;101314.00;;;0.74;58.71
53868;BME280;41577;47.470;19.080;2023-02-28T00:35:29;101309.69;;;0.73;58.74
53868;BME280;41577;47.470;19.080;2023-02-28T00:35:42;101308.84;;;0.72;58.77
53868;BME280;41577;47.470;19.080;2023-02-28T00:36:02;101313.19;;;0.73;58.87
53868;BME280;41577;47.470;19.080;2023-02-28T00:36:15;101315.81;;;0.73;58.92
53868;BME280;41577;47.470;19.080;2023-02-28T00:36:27;101314.00;;;0.74;59.01
53868;BME280;41577;47.470;19.080;2023-02-28T00:36:39;101316.63;;;0.74;59.02
53868;BME280;41577;47.470;19.080;2023-02-28T00:36:51;101314.84;;;0.74;58.83
53868;BME280;41577;47.470;19.080;2023-02-28T00:37:04;101313.06;;;0.75;58.80
53868;BME280;41577;47.470;19.080;2023-02-28T00:37:18;101313.91;;;0.75;58.63
53868;BME280;41577;47.470;19.080;2023-02-28T00:37:32;101310.44;;;0.75;58.90
53868;BME280;41577;47.470;19.080;2023-02-28T00:37:48;101316.63;;;0.74;58.86
53868;BME280;41577;47.470;19.080;2023-02-28T00:38:00;101313.06;;;0.75;58.84
53868;BME280;41577;47.470;19.080;2023-02-28T00:38:14;101306.97;;;0.74;58.96
53868;BME280;41577;47.470;19.080;2023-02-28T00:38:28;101309.59;;;0.74;59.11
53868;BME280;41577;47.470;19.080;2023-02-28T00:38:40;101314.00;;;0.74;58.90
53868;BME280;41577;47.470;19.080;2023-02-28T00:38:55;101311.28;;;0.75;59.01
53868;BME280;41577;47.470;19.080;2023-02-28T00:39:07;101314.75;;;0.76;58.89
53868;BME280;41577;47.470;19.080;2023-02-28T00:39:20;101318.13;;;0.78;58.84
53868;BME280;41577;47.470;19.080;2023-02-28T00:39:34;101313.72;;;0.78;58.76
53868;BME280;41577;47.470;19.080;2023-02-28T00:39:47;101318.00;;;0.79;58.64
53868;BME280;41577;47.470;19.080;2023-02-28T00:40:00;101311.00;;;0.80;58.58
53868;BME280;41577;47.470;19.080;2023-02-28T00:40:13;101316.25;;;0.80;58.64
53868;BME280;41577;47.470;19.080;2023-02-28T00:40:25;101312.88;;;0.78;58.63
53868;BME280;41577;47.470;19.080;2023-02-28T00:40:37;101322.44;;;0.79;58.60
53868;BME280;41577;47.470;19.080;2023-02-28T00:40:50;101310.25;;;0.78;58.62
53868;BME280;41577;47.470;19.080;2023-02-28T00:41:05;101318.97;;;0.78;58.59
53868;BME280;41577;47.470;19.080;2023-02-28T00:41:17;101314.75;;;0.76;58.70
53868;BME280;41577;47.470;19.080;2023-02-28T00:41:32;101316.44;;;0.77;58.69
53868;BME280;41577;47.470;19.080;2023-02-28T00:41:45;101314.75;;;0.76;58.60
53868;BME280;41577;47.470;19.080;2023-02-28T00:41:58;101317.25;;;0.77;58.64
53868;BME280;41577;47.470;19.080;2023-02-28T00:42:12;101312.00;;;0.77;58.70
53868;BME280;41577;47.470;19.080;2023-02-28T00:42:24;101314.63;;;0.77;58.78
53868;BME280;41577;47.470;19.080;2023-02-28T00:42:38;101318.13;;;0.78;58.95
53868;BME280;41577;47.470;19.080;2023-02-28T00:42:52;101312.97;;;0.76;59.30
53868;BME280;41577;47.470;19.080;2023-02-28T00:43:04;101315.50;;;0.78;58.97
53868;BME280;41577;47.470;19.080;2023-02-28T00:43:16;101309.38;;;0.77;58.91
53868;BME280;41577;47.470;19.080;2023-02-28T00:43:29;101311.00;;;0.80;59.12
53868;BME280;41577;47.470;19.080;2023-02-28T00:43:41;101319.72;;;0.80;58.92
53868;BME280;41577;47.470;19.080;2023-02-28T00:43:55;101317.91;;;0.81;58.95
53868;BME280;41577;47.470;19.080;2023-02-28T00:44:08;101309.28;;;0.79;58.86
53868;BME280;41577;47.470;19.080;2023-02-28T00:44:20;101313.50;;;0.81;58.82
53868;BME280;41577;47.470;19.080;2023-02-28T00:44:33;101316.97;;;0.82;58.64
53868;BME280;41577;47.470;19.080;2023-02-28T00:44:46;101315.19;;;0.82;58.68
53868;BME280;41577;47.470;19.080;2023-02-28T00:44:58;101315.19;;;0.82;58.66
53868;BME280;41577;47.470;19.080;2023-02-28T00:45:10;101309.94;;;0.82;58.72
53868;BME280;41577;47.470;19.080;2023-02-28T00:45:23;101309.06;;;0.82;58.68
53868;BME280;41577;47.470;19.080;2023-02-28T00:45:35;101316.03;;;0.83;58.61
53868;BME280;41577;47.470;19.080;2023-02-28T00:45:48;101309.94;;;0.82;58.80
53868;BME280;41577;47.470;19.080;2023-02-28T00:46:01;101316.03;;;0.83;58.65
53868;BME280;41577;47.470;19.080;2023-02-28T00:46:15;101313.41;;;0.83;58.67
53868;BME280;41577;47.470;19.080;2023-02-28T00:46:28;101316.03;;;0.83;58.65
53868;BME280;41577;47.470;19.080;2023-02-28T00:46:42;101313.31;;;0.85;58.95
53868;BME280;41577;47.470;19.080;2023-02-28T00:46:55;101313.41;;;0.83;58.65
53868;BME280;41577;47.470;19.080;2023-02-28T00:47:09;101311.41;;;0.87;58.67
53868;BME280;41577;47.470;19.080;2023-02-28T00:47:21;101313.19;;;0.86;58.27
53868;BME280;41577;47.470;19.080;2023-02-28T00:47:34;101313.94;;;0.88;58.25
53868;BME280;41577;47.470;19.080;2023-02-28T00:47:47;101324.25;;;0.91;58.30
53868;BME280;41577;47.470;19.080;2023-02-28T00:47:59;101306.06;;;0.88;58.32
53868;BME280;41577;47.470;19.080;2023-02-28T00:48:12;101318.16;;;0.91;58.23
53868;BME280;41577;47.470;19.080;2023-02-28T00:48:25;101315.72;;;0.88;58.22
53868;BME280;41577;47.470;19.080;2023-02-28T00:48:38;101315.00;;;0.86;58.19
53868;BME280;41577;47.470;19.080;2023-02-28T00:48:51;101315.09;;;0.84;58.36
53868;BME280;41577;47.470;19.080;2023-02-28T00:49:04;101321.91;;;0.87;58.27
53868;BME280;41577;47.470;19.080;2023-02-28T00:49:20;101312.66;;;0.81;58.38
53868;BME280;41577;47.470;19.080;2023-02-28T00:49:34;101315.94;;;0.85;58.40
53868;BME280;41577;47.470;19.080;2023-02-28T00:49:47;101318.75;;;0.81;58.46
53868;BME280;41577;47.470;19.080;2023-02-28T00:50:00;101320.47;;;0.82;58.53
53868;BME280;41577;47.470;19.080;2023-02-28T00:50:15;101321.38;;;0.81;58.63
53868;BME280;41577;47.470;19.080;2023-02-28T00:50:28;101316.25;;;0.80;58.71
53868;BME280;41577;47.470;19.080;2023-02-28T00:50:42;101322.44;;;0.79;58.89
53868;BME280;41577;47.470;19.080;2023-02-28T00:50:57;101324.97;;;0.80;58.75
53868;BME280;41577;47.470;19.080;2023-02-28T00:51:10;101315.38;;;0.79;58.77
53868;BME280;41577;47.470;19.080;2023-02-28T00:51:22;101320.56;;;0.81;58.83
53868;BME280;41577;47.470;19.080;2023-02-28T00:51:35;101320.56;;;0.81;58.62
53868;BME280;41577;47.470;19.080;2023-02-28T00:51:47;101318.88;;;0.80;58.66
53868;BME280;41577;47.470;19.080;2023-02-28T00:51:59;101313.06;;;0.75;58.73
53868;BME280;41577;47.470;19.080;2023-02-28T00:52:12;101319.91;;;0.77;58.52
53868;BME280;41577;47.470;19.080;2023-02-28T00:52:25;101324.22;;;0.78;58.64
53868;BME280;41577;47.470;19.080;2023-02-28T00:52:39;101319.06;;;0.77;58.77
53868;BME280;41577;47.470;19.080;2023-02-28T00:52:52;101324.22;;;0.78;58.83
53868;BME280;41577;47.470;19.080;2023-02-28T00:53:06;101320.75;;;0.78;58.77
53868;BME280;41577;47.470;19.080;2023-02-28T00:53:18;101321.69;;;0.77;58.60
53868;BME280;41577;47.470;19.080;2023-02-28T00:53:31;101318.22;;;0.76;58.91
53868;BME280;41577;47.470;19.080;2023-02-28T00:53:43;101322.66;;;0.76;58.75
53868;BME280;41577;47.470;19.080;2023-02-28T00:53:55;101322.72;;;0.74;58.94
53868;BME280;41577;47.470;19.080;2023-02-28T00:54:08;101317.47;;;0.74;58.90
53868;BME280;41577;47.470;19.080;2023-02-28T00:54:22;101320.00;;;0.76;59.01
53868;BME280;41577;47.470;19.080;2023-02-28T00:54:34;101327.91;;;0.76;59.02
53868;BME280;41577;47.470;19.080;2023-02-28T00:54:47;101317.47;;;0.74;59.01
53868;BME280;41577;47.470;19.080;2023-02-28T00:55:00;101315.81;;;0.73;59.04
53868;BME280;41577;47.470;19.080;2023-02-28T00:55:12;101317.38;;;0.76;59.04
53868;BME280;41577;47.470;19.080;2023-02-28T00:55:25;101318.31;;;0.75;59.02
53868;BME280;41577;47.470;19.080;2023-02-28T00:55:39;101317.47;;;0.74;59.16
53868;BME280;41577;47.470;19.080;2023-02-28T00:55:51;101323.47;;;0.76;58.99
53868;BME280;41577;47.470;19.080;2023-02-28T00:56:06;101320.94;;;0.75;59.11
53868;BME280;41577;47.470;19.080;2023-02-28T00:56:18;101318.31;;;0.75;59.02
53868;BME280;41577;47.470;19.080;2023-02-28T00:56:32;101317.47;;;0.74;59.17
53868;BME280;41577;47.470;19.080;2023-02-28T00:56:44;101319.28;;;0.74;59.07
53868;BME280;41577;47.470;19.080;2023-02-28T00:56:57;101318.44;;;0.73;59.13
53868;BME280;41577;47.470;19.080;2023-02-28T00:57:10;101316.63;;;0.74;59.23
53868;BME280;41577;47.470;19.080;2023-02-28T00:57:22;101317.47;;;0.74;59.14
53868;BME280;41577;47.470;19.080;2023-02-28T00:57:35;101317.69;;;0.71;59.40
53868;BME280;41577;47.470;19.080;2023-02-28T00:57:48;101321.91;;;0.74;59.07
53868;BME280;41577;47.470;19.080;2023-02-28T00:58:00;101312.31;;;0.73;59.14
53868;BME280;41577;47.470;19.080;2023-02-28T00:58:13;101323.56;;;0.75;59.19
53868;BME280;41577;47.470;19.080;2023-02-28T00:58:25;101317.38;;;0.76;59.24
53868;BME280;41577;47.470;19.080;2023-02-28T00:58:37;101312.22;;;0.74;59.12
53868;BME280;41577;47.470;19.080;2023-02-28T00:58:51;101320.00;;;0.76;59.15
53868;BME280;41577;47.470;19.080;2023-02-28T00:59:04;101315.59;;;0.76;58.96
53868;BME280;41577;47.470;19.080;2023-02-28T00:59:17;101318.22;;;0.76;59.37
53868;BME280;41577;47.470;19.080;2023-02-28T00:59:29;101312.13;;;0.76;58.99
53868;BME280;41577;47.470;19.080;2023-02-28T00:59:41;101313.63;;;0.80;59.01
53868;BME280;41577;47.470;19.080;2023-02-28T00:59:53;101311.00;;;0.80;59.11
53868;BME280;41577;47.470;19.080;2023-02-28T01:00:08;101317.38;;;0.76;59.12
53868;BME280;41577;47.470;19.080;2023-02-28T01:00:21;101319.81;;;0.79;58.70
53868;BME280;41577;47.470;19.080;2023-02-28T01:00:35;101316.34;;;0.78;58.75
53868;BME280;41577;47.470;19.080;2023-02-28T01:00:47;101315.50;;;0.78;58.85
53868;BME280;41577;47.470;19.080;2023-02-28T01:01:00;101318.97;;;0.78;58.70
53868;BME280;41577;47.470;19.080;2023-02-28T01:01:13;101318.22;;;0.76;58.89
53868;BME280;41577;47.470;19.080;2023-02-28T01:01:25;101319.19;;;0.75;59.00
53868;BME280;41577;47.470;19.080;2023-02-28T01:01:38;101318.31;;;0.75;58.84
53868;BME280;41577;47.470;19.080;2023-02-28T01:01:51;101327.91;;;0.76;58.86
53868;BME280;41577;47.470;19.080;2023-02-28T01:02:04;101325.16;;;0.77;58.96
53868;BME280;41577;47.470;19.080;2023-02-28T01:02:16;101313.81;;;0.77;58.98
53868;BME280;41577;47.470;19.080;2023-02-28T01:02:29;101322.53;;;0.77;59.02
53868;BME280;41577;47.470;19.080;2023-02-28T01:02:41;101318.13;;;0.78;59.09
53868;BME280;41577;47.470;19.080;2023-02-28T01:02:54;101318.97;;;0.78;59.03
53868;BME280;41577;47.470;19.080;2023-02-28T01:03:07;101318.97;;;0.78;58.89
53868;BME280;41577;47.470;19.080;2023-02-28T01:03:20;101323.38;;;0.78;58.80
53868;BME280;41577;47.470;19.080;2023-02-28T01:03:32;101320.75;;;0.78;58.97
53868;BME280;41577;47.470;19.080;2023-02-28T01:03:47;101313.81;;;0.77;59.00
53868;BME280;41577;47.470;19.080;2023-02-28T01:03:59;101318.88;;;0.80;58.96
53868;BME280;41577;47.470;19.080;2023-02-28T01:04:12;101320.75;;;0.78;58.93
53868;BME280;41577;47.470;19.080;2023-02-28T01:04:24;101318.97;;;0.78;58.89
53868;BME280;41577;47.470;19.080;2023-02-28T01:04:37;101320.75;;;0.78;59.04
53868;BME280;41577;47.470;19.080;2023-02-28T01:04:51;101318.13;;;0.78;58.94
53868;BME280;41577;47.470;19.080;2023-02-28T01:05:05;101325.06;;;0.79;59.15
53868;BME280;41577;47.470;19.080;2023-02-28T01:05:19;101317.16;;;0.79;59.13
53868;BME280;41577;47.470;19.080;2023-02-28T01:05:32;101324.97;;;0.80;59.05
53868;BME280;41577;47.470;19.080;2023-02-28T01:05:45;101317.09;;;0.80;58.92
53868;BME280;41577;47.470;19.080;2023-02-28T01:05:57;101318.88;;;0.80;59.07
53868;BME280;41577;47.470;19.080;2023-02-28T01:06:09;101314.63;;;0.77;59.10
53868;BME280;41577;47.470;19.080;2023-02-28T01:06:23;101318.88;;;0.80;59.16
53868;BME280;41577;47.470;19.080;2023-02-28T01:06:37;101322.34;;;0.80;59.33
53868;BME280;41577;47.470;19.080;2023-02-28T01:06:49;101319.72;;;0.80;59.28
53868;BME280;41577;47.470;19.080;2023-02-28T01:07:02;101323.19;;;0.81;59.41
53868;BME280;41577;47.470;19.080;2023-02-28T01:07:16;101321.50;;;0.80;59.47
53868;BME280;41577;47.470;19.080;2023-02-28T01:07:28;101320.47;;;0.82;59.36
53868;BME280;41577;47.470;19.080;2023-02-28T01:07:42;101321.50;;;0.80;59.44
53868;BME280;41577;47.470;19.080;2023-02-28T01:07:55;101316.03;;;0.83;59.37
53868;BME280;41577;47.470;19.080;2023-02-28T01:08:07;101322.97;;;0.84;59.31
53868;BME280;41577;47.470;19.080;2023-02-28T01:08:20;101318.88;;;0.80;59.32
53868;BME280;41577;47.470;19.080;2023-02-28T01:08:35;101316.88;;;0.83;59.18
53868;BME280;41577;47.470;19.080;2023-02-28T01:08:48;101317.72;;;0.84;59.14
53868;BME280;41577;47.470;19.080;2023-02-28T01:09:02;101319.41;;;0.85;59.24